createdAt,value
2022-11-11T00:02:30.465Z,10.32
2022-11-11T00:05:17.261Z,9.57
2022-11-11T00:08:03.729Z,9.98
2022-11-11T00:10:49.939Z,10.80
2022-11-11T00:13:38.395Z,9.95
2022-11-11T00:16:24.327Z,10.27
2022-11-11T00:19:29.832Z,9.98
2022-11-11T00:22:39.798Z,9.43
2022-11-11T00:25:26.253Z,10.25
2022-11-11T00:28:12.243Z,9.70
2022-11-11T00:31:06.539Z,9.98
2022-11-11T00:33:54.343Z,9.45
2022-11-11T00:36:44.542Z,9.27
2022-11-11T00:39:30.887Z,10.25
2022-11-11T00:42:16.577Z,9.75
2022-11-11T00:45:02.535Z,9.18
2022-11-11T00:48:07.352Z,9.05
2022-11-11T00:50:59.456Z,8.93
2022-11-11T00:53:45.644Z,9.93
2022-11-11T00:56:31.595Z,9.18
2022-11-11T00:59:17.726Z,9.85
2022-11-11T01:02:03.551Z,9.45
2022-11-11T01:04:49.289Z,9.65
2022-11-11T01:07:35.682Z,8.57
2022-11-11T01:10:38.454Z,9.98
2022-11-11T01:13:25.613Z,8.95
2022-11-11T01:16:14.925Z,8.95
2022-11-11T01:19:01.055Z,8.82
2022-11-11T01:21:47.142Z,8.80
2022-11-11T01:24:33.130Z,8.63
2022-11-11T01:27:19.147Z,8.35
2022-11-11T01:30:05.717Z,8.40
2022-11-11T01:32:51.543Z,8.82
2022-11-11T01:35:41.719Z,8.85
2022-11-11T01:38:28.219Z,8.68
2022-11-11T01:41:36.798Z,8.68
2022-11-11T01:44:46.754Z,8.30
2022-11-11T01:48:21.603Z,8.50
2022-11-11T01:50:59.599Z,9.43
2022-11-11T01:53:48.658Z,9.98
2022-11-11T01:56:35.235Z,9.50
2022-11-11T01:59:21.639Z,9.27
2022-11-11T02:02:32.120Z,10.15
2022-11-11T02:05:39.292Z,9.27
2022-11-11T02:08:34.937Z,10.57
2022-11-11T02:11:42.371Z,10.60
2022-11-11T02:14:37.752Z,9.68
2022-11-11T02:17:26.256Z,9.75
2022-11-11T02:20:15.691Z,9.95
2022-11-11T02:23:22.771Z,9.95
2022-11-11T02:26:11.007Z,9.60
2022-11-11T02:28:57.980Z,10.52
2022-11-11T02:31:44.072Z,10.02
2022-11-11T02:34:33.157Z,10.02
2022-11-11T02:37:23.355Z,9.80
2022-11-11T02:40:10.954Z,14.68
2022-11-11T02:42:56.637Z,13.50
2022-11-11T02:45:42.798Z,11.38
2022-11-11T02:48:29.132Z,9.20
2022-11-11T02:51:15.396Z,10.23
2022-11-11T02:54:03.410Z,9.35
2022-11-11T02:57:07.938Z,9.93
2022-11-11T02:59:54.012Z,9.80
2022-11-11T03:02:39.838Z,9.85
2022-11-11T03:05:26.073Z,9.45
2022-11-11T03:08:11.811Z,9.93
2022-11-11T03:10:57.572Z,9.25
2022-11-11T03:13:43.503Z,9.80
2022-11-11T03:16:48.259Z,9.40
2022-11-11T03:19:34.528Z,10.10
2022-11-11T03:22:53.921Z,8.65
2022-11-11T03:25:41.031Z,9.82
2022-11-11T03:28:27.228Z,9.00
2022-11-11T03:31:13.285Z,9.88
2022-11-11T03:34:18.356Z,9.30
2022-11-11T03:37:27.572Z,9.27
2022-11-11T03:40:13.861Z,9.05
2022-11-11T03:43:04.442Z,8.45
2022-11-11T03:45:53.215Z,8.63
2022-11-11T03:48:38.840Z,8.50
2022-11-11T03:51:24.803Z,8.48
2022-11-11T03:54:10.963Z,9.10
2022-11-11T03:57:16.694Z,8.57
2022-11-11T04:00:06.459Z,8.55
2022-11-11T04:03:31.074Z,7.80
2022-11-11T04:06:36.072Z,8.23
2022-11-11T04:09:40.782Z,8.38
2022-11-11T04:12:27.614Z,8.57
2022-11-11T04:15:32.170Z,8.60
2022-11-11T04:18:18.134Z,8.95
2022-11-11T04:21:22.815Z,8.50
2022-11-11T04:24:28.804Z,8.27
2022-11-11T04:27:16.987Z,8.52
2022-11-11T04:30:02.768Z,8.65
2022-11-11T04:32:49.039Z,8.50
2022-11-11T04:35:35.090Z,7.97
2022-11-11T04:38:39.576Z,8.43
2022-11-11T04:41:36.180Z,7.57
2022-11-11T04:44:50.382Z,8.15
2022-11-11T04:47:36.469Z,8.95
2022-11-11T04:50:24.449Z,8.70
2022-11-11T04:53:15.193Z,7.70
2022-11-11T04:56:19.657Z,8.73
2022-11-11T04:59:17.460Z,9.00
2022-11-11T05:02:22.092Z,9.02
2022-11-11T05:05:08.325Z,8.82
2022-11-11T05:08:13.298Z,9.52
2022-11-11T05:10:59.337Z,9.35
2022-11-11T05:14:04.093Z,7.93
2022-11-11T05:17:14.586Z,9.55
2022-11-11T05:20:19.160Z,9.00
2022-11-11T05:23:05.341Z,9.00
2022-11-11T05:25:51.333Z,9.50
2022-11-11T05:28:37.226Z,8.95
2022-11-11T05:31:22.910Z,8.52
2022-11-11T05:34:08.894Z,9.35
2022-11-11T05:36:54.927Z,8.77
2022-11-11T05:39:41.062Z,9.13
2022-11-11T05:42:27.234Z,9.50
2022-11-11T05:45:13.400Z,8.93
2022-11-11T05:48:03.005Z,10.95
2022-11-11T05:50:48.767Z,12.40
2022-11-11T05:53:34.901Z,9.98
2022-11-11T05:56:20.893Z,9.27
2022-11-11T05:59:07.676Z,8.82
2022-11-11T06:01:54.301Z,9.02
2022-11-11T06:04:40.396Z,9.25
2022-11-11T06:07:26.122Z,8.70
2022-11-11T06:10:30.642Z,8.25
2022-11-11T06:13:16.302Z,8.20
2022-11-11T06:16:02.223Z,8.75
2022-11-11T06:18:48.170Z,8.85
2022-11-11T06:21:53.919Z,8.50
2022-11-11T06:24:39.722Z,7.97
2022-11-11T06:27:25.741Z,7.97
2022-11-11T06:30:44.112Z,7.88
2022-11-11T06:33:18.075Z,8.25
2022-11-11T06:36:05.245Z,8.30
2022-11-11T06:38:50.999Z,8.88
2022-11-11T06:41:37.110Z,8.30
2022-11-11T06:44:23.196Z,8.45
2022-11-11T06:47:08.975Z,8.45
2022-11-11T06:49:55.158Z,7.63
2022-11-11T06:52:41.708Z,8.27
2022-11-11T06:55:27.781Z,7.60
2022-11-11T06:58:18.672Z,8.27
2022-11-11T07:01:06.140Z,8.27
2022-11-11T07:03:51.787Z,7.93
2022-11-11T07:06:37.417Z,8.75
2022-11-11T07:09:25.835Z,8.02
2022-11-11T07:12:12.721Z,8.43
2022-11-11T07:14:58.895Z,8.10
2022-11-11T07:17:44.737Z,9.02
2022-11-11T07:20:31.284Z,8.93
2022-11-11T07:23:18.278Z,8.15
2022-11-11T07:26:04.308Z,9.45
2022-11-11T07:28:51.472Z,13.73
2022-11-11T07:31:37.433Z,11.60
2022-11-11T07:34:23.284Z,9.35
2022-11-11T07:37:09.190Z,9.35
2022-11-11T07:39:55.047Z,8.20
2022-11-11T07:42:42.371Z,7.75
2022-11-11T07:45:28.195Z,8.32
2022-11-11T07:48:13.610Z,8.05
2022-11-11T07:50:59.862Z,9.20
2022-11-11T07:53:45.675Z,8.43
2022-11-11T07:56:31.771Z,9.30
2022-11-11T07:59:17.596Z,9.77
2022-11-11T08:02:03.495Z,8.88
2022-11-11T08:04:54.756Z,8.35
2022-11-11T08:07:42.663Z,8.77
2022-11-11T08:10:28.509Z,9.38
2022-11-11T08:13:33.150Z,8.65
2022-11-11T08:16:19.204Z,9.15
2022-11-11T08:19:05.034Z,8.68
2022-11-11T08:21:52.349Z,8.10
2022-11-11T08:27:44.531Z,8.90
2022-11-11T08:30:31.675Z,9.13
2022-11-11T08:33:34.674Z,8.30
2022-11-11T08:36:23.615Z,9.65
2022-11-11T08:39:09.813Z,8.43
2022-11-11T08:41:55.461Z,9.75
2022-11-11T08:44:41.162Z,10.20
2022-11-11T08:47:26.878Z,10.32
2022-11-11T08:50:12.734Z,10.57
2022-11-11T08:52:58.667Z,9.88
2022-11-11T08:55:44.871Z,12.27
2022-11-11T08:58:31.109Z,10.98
2022-11-11T09:01:17.076Z,12.52
2022-11-11T09:04:29.779Z,10.13
2022-11-11T09:07:10.117Z,10.10
2022-11-11T09:09:56.013Z,9.55
2022-11-11T09:12:42.983Z,9.70
2022-11-11T09:15:29.435Z,10.55
2022-11-11T09:18:15.517Z,10.35
2022-11-11T09:21:01.943Z,9.27
2022-11-11T09:23:47.898Z,10.55
2022-11-11T09:26:33.710Z,11.30
2022-11-11T09:29:19.880Z,11.15
2022-11-11T09:32:05.950Z,11.35
2022-11-11T09:34:51.367Z,9.70
2022-11-11T09:37:37.405Z,10.30
2022-11-11T09:40:25.300Z,13.57
2022-11-11T09:43:44.783Z,15.07
2022-11-11T09:46:45.538Z,10.68
2022-11-11T09:49:56.287Z,8.93
2022-11-11T09:52:44.753Z,8.88
2022-11-11T09:55:57.298Z,8.80
2022-11-11T09:58:52.857Z,9.13
2022-11-11T10:01:45.146Z,12.55
2022-11-11T10:04:50.146Z,11.80
2022-11-11T10:07:49.247Z,9.80
2022-11-11T10:10:46.974Z,8.88
2022-11-11T10:13:35.593Z,9.32
2022-11-11T10:16:42.636Z,10.18
2022-11-11T10:19:34.348Z,9.20
2022-11-11T10:22:33.782Z,9.82
2022-11-11T10:25:27.051Z,13.13
2022-11-11T10:28:20.341Z,12.15
2022-11-11T10:31:17.548Z,9.60
2022-11-11T10:34:10.152Z,8.98
2022-11-11T10:36:57.799Z,8.65
2022-11-11T10:40:22.077Z,8.43
2022-11-11T10:43:28.437Z,8.68
2022-11-11T10:46:17.260Z,9.25
2022-11-11T10:49:17.700Z,12.80
2022-11-11T10:52:33.416Z,7.10
2022-11-11T10:55:29.966Z,7.25
2022-11-11T10:58:27.777Z,7.38
2022-11-11T11:01:25.798Z,7.53
2022-11-11T11:04:20.943Z,6.63
2022-11-11T11:07:11.312Z,6.93
2022-11-11T11:10:06.177Z,6.78
2022-11-11T11:13:25.047Z,7.30
2022-11-11T11:16:32.309Z,6.55
2022-11-11T11:19:26.615Z,6.00
2022-11-11T11:22:12.613Z,5.57
2022-11-11T11:25:20.474Z,5.72
2022-11-11T11:28:12.975Z,5.82
2022-11-11T11:31:00.838Z,5.95
2022-11-11T11:37:02.583Z,5.88
2022-11-11T11:39:49.021Z,6.45
2022-11-11T11:42:39.491Z,6.20
2022-11-11T11:45:30.197Z,6.30
2022-11-11T11:48:37.700Z,6.60
2022-11-11T11:51:26.543Z,6.55
2022-11-11T11:54:15.057Z,6.40
2022-11-11T11:57:14.288Z,6.00
2022-11-11T12:00:13.804Z,6.20
2022-11-11T12:03:13.886Z,6.20
2022-11-11T12:06:27.011Z,6.03
2022-11-11T12:09:56.274Z,6.10
2022-11-11T12:12:58.724Z,5.95
2022-11-11T12:15:58.801Z,5.95
2022-11-11T12:18:59.895Z,6.25
2022-11-11T12:22:24.256Z,6.57
2022-11-11T12:25:23.121Z,5.90
2022-11-11T12:28:17.710Z,6.03
2022-11-11T12:31:15.083Z,6.30
2022-11-11T12:34:16.921Z,6.07
2022-11-11T12:37:19.192Z,5.50
2022-11-11T12:40:35.785Z,5.40
2022-11-11T12:43:55.157Z,5.60
2022-11-11T12:47:13.092Z,5.40
2022-11-11T12:50:04.555Z,5.18
2022-11-11T12:53:22.796Z,6.00
2022-11-11T12:56:43.126Z,6.35
2022-11-11T13:00:04.000Z,5.90
2022-11-11T13:03:04.501Z,5.72
2022-11-11T13:06:09.050Z,5.10
2022-11-11T13:09:00.473Z,5.15
2022-11-11T13:11:56.952Z,5.30
2022-11-11T13:15:00.323Z,5.28
2022-11-11T13:17:46.112Z,5.65
2022-11-11T13:20:47.961Z,4.95
2022-11-11T13:26:52.188Z,4.95
2022-11-11T13:30:05.358Z,5.60
2022-11-11T13:33:00.259Z,5.10
2022-11-11T13:35:52.464Z,5.82
2022-11-11T13:38:50.576Z,9.10
2022-11-11T13:41:40.908Z,5.70
2022-11-11T13:44:45.961Z,5.22
2022-11-11T13:47:39.259Z,5.10
2022-11-11T13:50:31.249Z,5.25
2022-11-11T13:56:21.866Z,4.88
2022-11-11T13:59:16.413Z,4.75
2022-11-11T14:02:35.561Z,4.95
2022-11-11T14:05:23.122Z,4.43
2022-11-11T14:08:09.195Z,4.70
2022-11-11T14:10:59.206Z,5.47
2022-11-11T14:13:45.312Z,4.90
2022-11-11T14:16:36.804Z,4.63
2022-11-11T14:19:22.730Z,4.38
2022-11-11T14:22:33.806Z,4.72
2022-11-11T14:25:26.280Z,5.55
2022-11-11T14:28:21.366Z,5.63
2022-11-11T14:31:13.623Z,5.43
2022-11-11T14:34:33.413Z,5.55
2022-11-11T14:37:52.878Z,5.78
2022-11-11T14:40:38.962Z,5.22
2022-11-11T14:43:42.756Z,5.57
2022-11-11T14:46:28.784Z,5.78
2022-11-11T14:49:54.444Z,5.93
2022-11-11T14:52:42.792Z,5.60
2022-11-11T14:55:34.942Z,5.57
2022-11-11T14:58:35.208Z,5.68
2022-11-11T15:01:22.239Z,5.78
2022-11-11T15:04:08.463Z,7.50
2022-11-11T15:07:00.056Z,6.57
2022-11-11T15:10:01.068Z,6.77
2022-11-11T15:13:31.199Z,8.10
2022-11-11T15:16:35.204Z,7.28
2022-11-11T15:19:48.012Z,7.75
2022-11-11T15:23:04.740Z,6.65
2022-11-11T15:26:01.187Z,6.90
2022-11-11T15:29:13.317Z,6.38
2022-11-11T15:32:12.495Z,6.47
2022-11-11T15:35:10.078Z,6.63
2022-11-11T15:37:59.982Z,6.57
2022-11-11T15:40:51.253Z,7.30
2022-11-11T15:43:40.168Z,6.40
2022-11-11T15:46:28.826Z,6.90
2022-11-11T15:49:38.733Z,6.57
2022-11-11T15:52:31.574Z,7.68
2022-11-11T15:55:28.727Z,6.72
2022-11-11T15:58:14.602Z,6.88
2022-11-11T16:01:04.726Z,6.93
2022-11-11T16:03:50.746Z,6.20
2022-11-11T16:06:39.296Z,6.28
2022-11-11T16:09:27.954Z,6.35
2022-11-11T16:12:24.662Z,6.30
2022-11-11T16:15:49.118Z,6.78
2022-11-11T16:18:49.690Z,5.95
2022-11-11T16:21:41.134Z,6.13
2022-11-11T16:24:33.957Z,5.90
2022-11-11T16:27:26.397Z,5.82
2022-11-11T16:30:32.916Z,6.72
2022-11-11T16:33:27.544Z,6.50
2022-11-11T16:36:14.133Z,8.05
2022-11-11T16:39:20.970Z,6.93
2022-11-11T16:42:29.751Z,7.75
2022-11-11T16:45:23.788Z,8.35
2022-11-11T16:48:36.723Z,8.98
2022-11-11T16:51:49.020Z,10.32
2022-11-11T16:54:47.850Z,9.13
2022-11-11T16:57:34.946Z,9.02
2022-11-11T17:00:23.985Z,8.95
2022-11-11T17:03:23.017Z,9.38
2022-11-11T17:06:10.034Z,9.57
2022-11-11T17:08:56.541Z,9.60
2022-11-11T17:11:44.137Z,9.40
2022-11-11T17:14:34.215Z,8.93
2022-11-11T17:17:21.817Z,10.83
2022-11-11T17:20:07.896Z,9.20
2022-11-11T17:22:58.452Z,9.60
2022-11-11T17:25:45.107Z,9.75
2022-11-11T17:28:34.717Z,9.73
2022-11-11T17:31:20.725Z,10.73
2022-11-11T17:34:09.647Z,11.40
2022-11-11T17:36:55.570Z,10.38
2022-11-11T17:39:45.132Z,10.15
2022-11-11T17:42:31.965Z,9.73
2022-11-11T17:45:17.750Z,9.10
2022-11-11T17:48:04.261Z,10.25
2022-11-11T17:50:50.285Z,9.65
2022-11-11T17:53:37.415Z,9.80
2022-11-11T17:56:26.982Z,10.80
2022-11-11T17:59:13.338Z,10.55
2022-11-11T18:01:59.657Z,11.73
2022-11-11T18:04:45.456Z,11.68
2022-11-11T18:07:31.366Z,9.60
2022-11-11T18:10:17.518Z,10.60
2022-11-11T18:13:03.417Z,10.98
2022-11-11T18:15:49.508Z,11.15
2022-11-11T18:18:35.761Z,10.88
2022-11-11T18:21:21.702Z,11.57
2022-11-11T18:24:08.744Z,13.00
2022-11-11T18:26:55.619Z,12.57
2022-11-11T18:29:42.484Z,12.40
2022-11-11T18:32:28.417Z,11.85
2022-11-11T18:35:14.144Z,12.80
2022-11-11T18:38:00.009Z,12.18
2022-11-11T18:40:46.129Z,12.57
2022-11-11T18:43:44.347Z,11.45
2022-11-11T18:46:30.690Z,13.27
2022-11-11T18:49:17.422Z,12.57
2022-11-11T18:52:03.779Z,12.93
2022-11-11T18:54:49.810Z,12.63
2022-11-11T18:57:35.606Z,12.30
2022-11-11T19:00:22.403Z,13.43
2022-11-11T19:03:08.368Z,12.32
2022-11-11T19:05:54.250Z,13.10
2022-11-11T19:08:39.826Z,14.32
2022-11-11T19:11:27.480Z,16.58
2022-11-11T19:14:21.441Z,18.13
2022-11-11T19:17:10.065Z,18.00
2022-11-11T19:19:56.110Z,15.25
2022-11-11T19:22:42.188Z,13.82
2022-11-11T19:25:28.436Z,18.80
2022-11-11T19:28:14.410Z,15.68
2022-11-11T19:31:21.306Z,20.00
2022-11-11T19:34:07.377Z,13.23
2022-11-11T19:36:53.354Z,14.45
2022-11-11T19:39:41.892Z,14.68
2022-11-11T19:42:27.728Z,14.32
2022-11-11T19:45:14.113Z,15.60
2022-11-11T19:47:59.997Z,14.30
2022-11-11T19:50:45.954Z,14.57
2022-11-11T19:53:32.176Z,14.25
2022-11-11T19:56:20.281Z,13.70
2022-11-11T19:59:06.483Z,13.50
2022-11-11T20:01:52.346Z,13.82
2022-11-11T20:04:38.452Z,16.80
2022-11-11T20:07:24.481Z,18.65
2022-11-11T20:10:10.894Z,20.75
2022-11-11T20:12:57.494Z,20.63
2022-11-11T20:15:44.651Z,17.27
2022-11-11T20:18:32.381Z,15.40
2022-11-11T20:21:18.105Z,15.85
2022-11-11T20:24:04.361Z,16.63
2022-11-11T20:26:52.361Z,16.50
2022-11-11T20:29:38.646Z,15.93
2022-11-11T20:32:24.670Z,16.75
2022-11-11T20:35:10.469Z,25.27
2022-11-11T20:37:56.621Z,19.23
2022-11-11T20:40:42.322Z,17.38
2022-11-11T20:43:29.519Z,18.38
2022-11-11T20:46:18.649Z,19.02
2022-11-11T20:49:04.850Z,16.75
2022-11-11T20:51:50.999Z,17.73
2022-11-11T20:54:38.232Z,20.13
2022-11-11T20:57:24.126Z,17.67
2022-11-11T21:00:10.490Z,18.48
2022-11-11T21:02:56.579Z,20.20
2022-11-11T21:05:42.572Z,20.88
2022-11-11T21:08:32.751Z,22.90
2022-11-11T21:11:21.982Z,17.85
2022-11-11T21:14:08.455Z,17.92
2022-11-11T21:16:54.413Z,18.63
2022-11-11T21:19:40.113Z,17.95
2022-11-11T21:22:26.021Z,17.25
2022-11-11T21:25:13.118Z,16.52
2022-11-11T21:28:00.170Z,18.15
2022-11-11T21:30:45.877Z,19.35
2022-11-11T21:33:32.107Z,18.30
2022-11-11T21:36:19.281Z,17.77
2022-11-11T21:39:07.080Z,19.23
2022-11-11T21:41:53.091Z,19.05
2022-11-11T21:44:39.144Z,16.95
2022-11-11T21:47:25.339Z,17.20
2022-11-11T21:50:11.019Z,17.52
2022-11-11T21:52:56.769Z,18.73
2022-11-11T21:55:42.444Z,18.63
2022-11-11T21:58:28.949Z,18.38
2022-11-11T22:01:20.282Z,17.35
2022-11-11T22:04:11.699Z,16.88
2022-11-11T22:06:57.458Z,17.10
2022-11-11T22:09:43.545Z,17.90
2022-11-11T22:12:33.571Z,16.80
2022-11-11T22:15:22.169Z,17.20
2022-11-11T22:18:08.158Z,17.00
2022-11-11T22:20:54.041Z,16.45
2022-11-11T22:23:40.538Z,19.58
2022-11-11T22:26:30.776Z,17.42
2022-11-11T22:29:16.756Z,16.15
2022-11-11T22:32:02.584Z,16.80
2022-11-11T22:34:48.469Z,15.43
2022-11-11T22:37:34.292Z,15.23
2022-11-11T22:40:20.357Z,15.00
2022-11-11T22:43:06.063Z,15.52
2022-11-11T22:45:59.060Z,15.23
2022-11-11T22:48:56.544Z,14.90
2022-11-11T22:51:46.292Z,14.73
2022-11-11T22:54:32.482Z,14.15
2022-11-11T22:57:18.325Z,15.77
2022-11-11T23:00:06.422Z,16.27
2022-11-11T23:02:52.002Z,14.57
2022-11-11T23:05:37.929Z,14.13
2022-11-11T23:08:24.132Z,14.10
2022-11-11T23:11:22.036Z,14.48
2022-11-11T23:14:13.544Z,13.05
2022-11-11T23:16:59.381Z,12.85
2022-11-11T23:19:45.016Z,13.15
2022-11-11T23:22:31.101Z,13.40
2022-11-11T23:25:17.287Z,12.50
2022-11-11T23:28:03.944Z,15.43
2022-11-11T23:30:49.740Z,18.70
2022-11-11T23:33:37.999Z,16.63
2022-11-11T23:36:25.985Z,12.45
2022-11-11T23:39:11.985Z,12.10
2022-11-11T23:41:58.058Z,12.55
2022-11-11T23:44:44.210Z,12.55
2022-11-11T23:47:30.379Z,15.60
2022-11-11T23:50:16.183Z,14.85
2022-11-11T23:53:02.270Z,12.52
2022-11-11T23:55:48.286Z,12.05
2022-11-11T23:58:34.368Z,15.80
